Date,TemperatureHighF,TemperatureAvgF,TemperatureLowF,DewpointHighF,DewpointAvgF,DewpointLowF,HumidityHigh,HumidityAvg,HumidityLow,PressureMaxIn,PressureMinIn,WindSpeedMaxMPH,WindSpeedAvgMPH,GustSpeedMaxMPH,PrecipitationSumIn
2013-1-1,80.8,73.8,68.7,65.9,62.0,58.8,81,67,56,30.18,30.03,18,2,18,0.00
2013-1-2,81.9,72.7,64.7,69.4,66.3,61.7,93,81,64,30.08,29.98,11,1,11,0.00
2013-1-3,82.3,75.0,68.2,70.9,68.5,65.7,93,81,64,30.11,30.01,13,2,13,0.00
2013-1-4,83.7,74.0,67.0,73.7,69.6,65.0,96,86,70,30.20,30.08,9,1,10,0.01
2013-1-5,77.7,71.6,68.2,72.0,68.6,66.4,97,90,76,30.23,30.13,11,2,11,0.12
2013-1-6,83.0,76.4,68.2,73.6,71.2,66.4,97,84,71,30.17,30.04,14,2,14,0.02
2013-1-7,78.8,72.7,68.8,72.3,69.1,67.3,96,89,71,30.15,30.05,10,1,12,0.38
2013-1-8,82.7,77.9,73.6,74.5,72.4,70.0,91,84,74,30.18,30.05,13,4,14,0.00
2013-1-9,82.0,78.2,76.1,73.6,71.7,69.3,86,81,74,30.26,30.14,16,5,17,0.00
2013-1-10,81.6,77.4,75.2,71.0,68.1,63.6,83,73,56,30.28,30.16,16,5,17,0.00
2013-1-19,70.3,69.0,66.9,68.2,67.4,65.7,96,94,92,30.11,30.07,4,1,5,0.62
2013-1-20,79.7,71.5,64.9,71.6,67.5,64.0,98,88,68,30.13,29.99,9,1,10,0.92
2013-1-21,79.0,71.8,67.7,72.4,68.5,65.4,98,90,75,30.05,29.94,8,1,10,0.16
2013-1-22,76.2,70.0,64.0,65.5,61.2,55.3,93,75,60,30.19,29.98,17,4,20,0.00
2013-1-23,75.5,70.2,64.1,60.1,56.4,53.0,79,62,52,30.27,30.17,14,4,15,0.00
2013-1-24,76.8,67.7,60.5,58.9,55.9,52.5,84,67,50,30.27,30.17,12,2,12,0.00
2013-1-25,78.2,68.6,59.9,62.8,57.2,52.0,84,68,49,30.26,30.16,10,1,10,0.00
2013-1-26,79.0,70.9,61.9,63.6,60.8,54.6,86,71,54,30.24,30.14,11,2,12,0.00
2013-1-27,72.0,71.8,71.7,63.3,63.1,63.0,74,74,74,30.19,30.18,5,2,7,0.00
2013-1-30,74.3,73.9,73.6,69.6,69.3,69.0,87,86,85,29.99,29.97,10,2,10,0.00
2013-1-31,74.6,69.5,61.2,72.2,61.3,42.2,95,76,48,30.16,29.93,19,4,24,0.00
2013-2-1,74.6,65.1,54.6,58.4,50.9,41.6,72,60,51,30.25,30.13,17,4,19,0.00
2013-2-2,75.9,67.3,57.8,56.1,51.9,38.8,74,58,43,30.24,30.09,13,2,14,0.00
2013-2-3,79.6,66.3,58.1,57.2,52.4,46.0,87,63,36,30.15,30.04,13,2,13,0.00
2013-2-4,76.6,65.3,53.4,56.8,49.8,40.5,79,59,35,30.13,30.01,7,1,9,0.00
2013-2-5,78.8,68.8,58.0,65.1,60.0,54.7,92,74,54,30.07,29.98,11,1,11,0.00
2013-2-6,81.2,72.0,63.1,68.3,64.2,61.0,94,77,62,30.09,30.00,11,2,11,0.00
2013-2-7,82.5,75.5,71.0,68.4,65.9,63.0,83,72,60,30.06,29.93,14,3,14,0.00
2013-2-8,87.2,76.7,70.1,72.1,69.6,65.7,94,80,58,30.01,29.89,14,2,17,0.00
2013-2-9,77.3,68.5,66.4,68.2,63.7,59.5,92,85,72,30.10,29.99,7,1,8,0.00
2013-2-15,66.9,66.2,65.7,65.6,65.1,64.5,97,96,95,29.95,29.92,5,0,16,0.98
2013-2-16,72.1,65.8,64.3,65.8,64.1,62.8,97,94,77,29.93,29.86,13,2,13,0.01
2013-2-24,85.8,85.6,85.6,73.9,73.9,73.5,68,68,68,29.90,29.90,7,3,12,0.00
2013-3-12,77.6,75.2,71.7,70.4,67.0,65.1,84,76,67,29.98,29.89,13,3,13,0.02
2013-3-13,78.3,68.5,59.6,66.8,58.0,47.6,88,70,46,30.10,29.96,17,4,17,0.00
2013-3-14,63.0,61.8,60.5,54.1,53.6,53.3,78,74,71,30.10,30.09,7,0,7,0.00
2013-3-22,75.1,74.7,74.5,71.1,69.7,67.9,89,85,79,29.97,29.91,12,3,12,0.00
2013-3-23,87.0,78.3,72.8,75.4,73.1,71.0,96,85,60,29.97,29.80,20,3,20,0.00
2013-3-24,89.9,80.6,75.3,74.7,73.1,70.7,95,79,56,29.87,29.67,26,5,26,0.00
2013-3-25,83.0,76.6,67.2,74.1,61.9,43.6,92,63,36,29.98,29.73,15,4,15,0.00
2013-3-26,73.0,64.0,54.3,46.7,40.1,32.7,60,43,24,30.19,29.97,21,7,21,0.00
2013-3-27,67.9,56.0,48.5,49.7,43.4,36.9,72,63,49,30.21,30.15,14,3,14,0.00
2013-3-28,73.5,64.2,54.4,51.4,46.3,36.4,71,54,34,30.24,30.15,13,3,13,0.00
2013-3-29,77.0,67.3,58.4,55.5,51.3,43.6,68,57,45,30.27,30.18,14,3,14,0.00
2013-3-30,77.1,70.8,66.1,56.5,53.6,49.8,64,55,41,30.25,30.15,12,3,12,0.00
2013-3-31,82.7,74.1,69.0,68.1,63.4,55.5,83,69,57,30.18,30.03,14,3,14,0.00
2013-4-1,91.5,78.1,73.3,72.9,68.5,62.5,88,73,43,30.04,29.93,17,4,17,0.00
2013-4-2,82.6,75.8,68.0,68.7,66.9,64.9,95,75,60,30.07,29.97,11,3,11,0.00
2013-4-3,84.0,77.7,73.4,71.7,69.5,67.1,85,76,65,30.05,29.97,14,3,14,0.00
2013-4-4,85.6,77.1,69.7,74.9,71.2,67.5,95,83,69,30.03,29.89,25,4,25,1.89
2013-4-5,74.4,69.6,66.7,71.9,67.7,65.2,96,94,89,29.97,29.88,15,2,15,0.74
2013-4-6,78.8,75.4,72.6,71.0,64.5,61.3,78,69,64,30.07,29.99,15,5,15,0.02
2013-4-7,78.8,73.6,71.0,67.0,64.6,62.3,82,73,62,30.12,30.00,15,5,15,0.02
2013-4-8,82.0,76.1,69.7,66.0,63.1,60.6,76,65,52,30.12,30.02,12,3,12,0.00
2013-4-9,82.0,77.1,73.9,70.0,67.5,65.2,80,73,65,30.13,30.03,15,4,15,0.00
2013-4-10,84.1,78.5,74.5,73.9,71.3,67.2,85,79,71,30.09,29.98,16,4,16,0.00
2013-4-11,84.6,79.1,76.3,74.5,72.7,70.8,88,81,70,30.00,29.88,17,5,17,0.00
2013-4-12,87.5,81.3,78.0,77.9,75.5,73.4,89,83,71,29.93,29.85,23,5,23,0.00
2013-4-13,86.1,79.7,77.0,77.4,74.2,70.7,91,84,62,29.96,29.86,15,2,15,0.12
2013-4-14,87.3,81.2,76.9,76.6,75.2,73.8,93,82,68,29.95,29.88,17,3,17,0.00
2013-4-15,89.9,79.8,72.4,78.3,74.8,69.7,94,85,61,30.04,29.91,19,2,19,0.40
2013-4-16,87.8,79.3,72.6,77.4,74.2,71.0,98,85,67,30.10,30.00,13,3,13,0.10
2013-4-17,85.7,79.8,76.4,73.1,71.3,69.5,86,76,61,30.09,30.00,14,3,14,0.00
2013-4-18,86.8,81.0,76.8,74.9,72.3,69.3,83,75,65,30.04,29.96,14,3,14,0.00
2013-4-19,88.0,82.4,78.5,76.4,74.0,71.4,87,76,64,30.03,29.94,18,4,18,0.01
2013-4-20,88.6,79.7,71.5,77.9,74.4,68.8,95,85,64,30.06,29.91,32,2,32,1.61
2013-4-21,84.5,77.6,72.6,75.3,73.2,70.2,97,87,70,30.08,29.96,15,2,15,0.19
2013-4-22,83.8,75.6,71.1,73.8,71.2,68.1,95,87,65,30.03,29.89,14,2,14,0.21
2013-4-23,84.0,76.2,68.7,71.3,67.7,61.9,96,76,59,30.07,29.92,20,4,20,0.01
2013-4-24,84.8,78.6,73.9,69.1,65.3,62.1,71,64,55,30.11,30.01,15,4,15,0.00
2013-4-25,84.4,77.9,73.7,64.7,63.4,61.6,70,61,50,30.18,30.06,15,4,15,0.00
2013-4-26,83.9,77.5,72.2,67.9,65.1,61.6,73,66,56,30.20,30.09,15,4,15,0.00
2013-4-27,83.6,78.1,73.5,69.3,65.8,62.5,85,66,56,30.18,30.06,16,5,16,0.01
2013-4-28,84.3,78.5,74.4,67.0,65.3,61.5,76,65,53,30.09,29.97,17,6,17,0.00
2013-4-29,83.8,78.5,75.8,72.3,69.5,65.2,83,74,66,30.02,29.92,15,4,15,0.00
2013-4-30,86.4,78.0,71.9,73.8,71.5,68.5,96,81,64,30.00,29.90,16,2,16,0.92
2013-5-1,76.2,75.0,73.2,72.0,71.3,70.5,93,88,86,29.96,29.90,4,0,4,0.00
2013-5-2,75.0,73.6,71.5,71.2,69.9,67.8,90,88,86,29.81,29.76,24,8,24,4.07
2013-5-3,88.3,76.6,69.2,74.0,70.5,67.9,96,83,53,29.79,29.67,16,2,16,1.39
2013-5-4,91.7,79.5,69.1,72.1,69.1,66.1,96,73,47,29.78,29.67,16,3,16,0.00
2013-5-5,88.7,77.1,69.9,68.1,64.0,55.7,91,66,40,29.92,29.74,15,4,15,0.00
2013-5-6,84.6,74.4,62.7,66.2,61.5,58.0,86,66,46,30.00,29.90,13,2,13,0.01
2013-5-7,89.2,75.9,65.7,68.5,63.3,58.9,87,66,41,30.05,29.95,14,3,14,0.00
2013-5-8,85.0,76.4,65.5,69.3,63.9,58.3,88,67,42,30.12,30.02,11,2,11,0.00
2013-5-9,87.0,78.9,68.6,74.7,68.9,59.7,83,72,59,30.12,30.04,12,2,12,0.00
2013-5-10,88.5,81.3,73.9,75.6,73.4,69.5,92,78,59,30.11,30.00,15,2,15,0.04
2013-5-11,88.8,81.2,75.2,76.6,74.4,70.5,94,81,64,30.05,29.96,18,3,18,0.19
2013-5-12,89.2,80.4,73.8,76.5,73.8,68.4,95,81,62,30.05,29.93,17,2,17,0.07
2013-5-13,92.3,80.7,72.4,75.7,72.3,68.9,96,77,51,30.06,29.97,14,2,14,0.01
2013-5-14,84.4,78.7,75.0,69.3,62.7,57.3,74,59,46,30.15,30.04,17,4,17,0.00
2013-5-15,84.3,78.0,74.0,66.0,61.9,57.7,68,58,45,30.17,30.07,13,5,13,0.00
2013-5-16,85.0,78.4,73.3,66.8,63.3,58.7,70,60,48,30.10,30.02,13,4,13,0.00
2013-5-17,88.5,81.1,76.0,74.4,71.0,65.0,88,72,53,30.07,29.99,15,3,15,0.00
2013-5-18,86.7,81.4,77.0,75.4,72.9,70.7,88,76,66,30.09,30.01,15,2,15,0.00
2013-5-19,86.6,81.3,77.1,73.0,71.0,68.4,81,71,60,30.08,29.97,14,3,14,0.00
2013-5-20,84.3,77.9,71.6,75.5,73.2,69.2,96,86,73,30.05,29.94,18,2,18,2.55
2013-5-21,82.5,77.1,72.7,76.1,72.0,69.3,96,85,72,30.02,29.91,17,3,17,0.12
2013-5-22,85.3,77.4,71.9,76.1,73.2,68.2,97,87,69,29.95,29.87,25,2,25,1.50
2013-5-23,98.7,83.6,73.5,77.7,74.9,69.5,96,77,40,29.99,29.89,14,2,14,0.00
2013-5-24,93.5,83.8,76.0,77.9,75.6,73.7,94,78,55,30.04,29.92,13,2,13,0.00
2013-5-25,87.6,82.1,76.4,75.7,69.6,65.6,85,67,53,30.14,30.01,16,4,16,0.00
2013-5-26,87.3,81.0,76.6,69.4,67.2,63.7,76,63,51,30.15,30.08,17,5,17,0.00
2013-5-27,87.5,81.3,77.1,75.0,71.6,65.7,81,73,63,30.13,30.04,22,7,22,0.00
2013-5-28,84.7,79.4,76.3,75.3,73.3,71.3,91,82,72,30.08,30.01,23,6,23,0.03
2013-5-29,80.6,76.6,72.3,74.8,72.5,68.4,96,87,76,30.07,30.00,22,6,22,1.20
2013-5-30,85.0,79.6,75.7,75.6,73.4,70.9,92,82,72,30.04,29.99,22,7,22,0.00
2013-6-4,81.5,81.1,80.6,76.6,76.1,75.8,86,85,84,30.00,29.99,7,3,7,0.36
2013-6-5,85.4,82.0,80.1,78.3,76.8,74.7,89,84,78,30.00,29.87,14,3,14,0.00
2013-6-6,89.8,81.4,75.7,80.7,77.1,72.9,94,87,73,29.89,29.76,25,5,25,0.63
2013-6-7,92.5,78.7,73.8,80.1,74.9,72.4,97,89,63,29.99,29.82,20,3,20,2.08
2013-6-8,88.4,81.7,74.9,80.5,76.9,73.0,96,86,72,30.08,29.94,15,2,15,0.00
2013-6-9,88.8,84.0,80.5,77.7,76.2,74.1,85,78,67,30.09,30.01,15,4,15,0.00
2013-6-10,89.7,84.5,80.7,80.4,77.2,75.6,86,79,69,30.07,29.98,14,4,14,0.00
2013-6-11,90.5,83.7,80.3,79.0,77.2,74.1,91,81,62,30.07,29.99,15,2,15,0.00
2013-6-12,87.3,82.6,79.0,78.8,77.0,74.5,90,83,74,30.06,29.99,10,1,10,0.00
2013-6-13,94.0,83.5,76.4,78.7,75.5,69.3,96,78,50,30.04,29.93,13,1,13,0.00
2013-6-14,98.8,82.5,75.9,80.3,74.8,71.8,93,79,48,29.96,29.86,23,2,23,1.90
2013-6-15,90.1,83.2,75.6,77.7,75.9,74.0,97,80,60,30.04,29.91,11,2,11,0.00
2013-6-16,90.3,84.5,77.1,79.3,76.6,74.1,93,78,66,30.07,30.00,13,2,13,0.00
2013-6-17,90.7,85.4,81.5,80.6,76.9,74.4,83,76,66,30.06,29.99,13,2,13,0.06
2013-6-18,89.8,85.4,81.3,78.3,77.0,75.5,84,76,66,30.05,29.97,14,3,14,0.00
2013-6-19,91.7,85.7,80.5,78.7,77.2,75.6,88,76,63,30.03,29.96,15,2,15,0.00
2013-6-20,89.7,82.6,74.1,78.7,75.5,70.3,94,80,65,30.07,30.00,16,2,16,0.24
2013-6-21,90.5,85.2,81.0,77.5,75.5,72.4,88,73,62,30.10,30.01,11,3,11,0.03
2013-6-22,90.7,85.1,80.3,77.2,75.3,73.3,82,73,63,30.08,30.01,14,4,14,0.00
2013-6-23,90.8,84.8,78.8,77.6,74.9,71.0,85,73,58,30.10,30.03,16,4,16,0.01
2013-6-24,91.3,84.9,81.0,77.5,75.2,73.0,83,73,62,30.15,30.05,14,4,14,0.00
2013-6-25,89.8,84.3,81.3,78.9,76.2,74.0,84,77,67,30.10,30.01,16,4,16,0.01
2013-6-26,90.3,84.5,77.3,77.8,76.2,74.3,95,77,64,30.06,29.98,18,3,18,0.59
2013-6-27,90.2,84.6,81.4,77.4,76.1,72.2,83,76,65,30.03,29.94,10,2,10,0.00
2013-6-28,90.8,85.0,79.2,78.3,76.3,73.5,89,76,64,29.98,29.85,14,2,14,0.00
2013-6-29,85.2,81.7,79.4,76.9,75.8,73.9,87,82,69,29.90,29.84,11,1,11,0.51
2013-6-30,90.8,83.7,78.0,78.8,76.2,74.0,93,79,63,29.93,29.83,23,4,23,0.20
2013-7-1,91.0,84.2,79.4,79.9,77.2,74.9,89,80,66,30.01,29.90,20,3,20,0.00
2013-7-2,89.3,84.2,79.4,80.1,77.4,74.7,91,81,71,30.09,29.95,14,2,14,0.02
2013-7-3,89.5,83.5,79.5,78.7,76.5,71.2,89,80,68,30.11,30.02,17,3,17,0.14
2013-7-4,89.8,84.4,76.6,78.4,76.2,72.4,94,77,67,30.14,30.05,23,4,23,0.23
2013-7-5,86.1,82.5,77.6,78.4,76.2,73.4,94,82,70,30.11,30.03,15,4,15,0.09
2013-7-6,89.9,84.1,79.7,77.8,75.8,73.9,89,77,63,30.10,30.00,16,5,16,0.10
2013-7-7,88.8,84.3,79.5,78.6,75.9,73.9,90,76,68,30.08,30.00,16,5,16,0.16
2013-7-8,90.0,84.4,79.5,76.5,74.7,73.0,87,73,62,30.13,30.05,14,3,14,0.17
2013-7-9,88.0,82.5,77.7,75.6,73.9,70.0,88,76,64,30.12,30.03,16,2,16,0.15
2013-7-10,85.0,80.1,74.4,77.4,74.8,71.5,96,84,75,30.07,29.98,13,2,13,0.31
2013-7-11,90.0,84.6,80.3,78.6,76.6,74.9,87,77,66,30.02,29.93,12,2,12,0.00
2013-7-12,94.9,84.6,78.8,78.1,75.4,71.0,90,75,53,29.95,29.88,14,1,14,0.00
2013-7-13,90.5,79.1,73.5,78.4,74.3,71.1,96,86,63,29.99,29.90,15,1,15,1.66
2013-7-14,89.1,80.5,73.7,77.2,74.4,71.9,96,83,64,30.08,29.97,16,3,16,0.76
2013-7-15,88.8,81.9,74.5,78.4,74.3,71.5,94,78,62,30.07,29.99,15,3,15,0.02
2013-7-16,84.3,79.1,73.5,75.2,72.9,70.1,94,82,67,30.13,30.02,23,6,23,0.55
2013-7-17,80.1,76.8,73.0,76.0,73.7,70.0,97,90,81,30.14,30.02,23,3,23,2.03
2013-7-18,83.5,76.5,72.9,78.4,74.3,71.7,97,93,75,30.11,30.03,16,1,16,1.41
2013-7-19,89.5,82.3,74.0,79.4,77.0,73.0,97,85,70,30.11,30.02,13,2,13,0.01
2013-7-20,88.4,83.0,77.6,80.3,77.4,73.0,90,83,69,30.10,30.01,19,2,19,0.03
2013-7-21,91.0,83.2,78.7,80.7,77.7,75.2,92,84,70,30.13,30.03,13,1,13,0.01
2013-7-22,90.4,84.9,80.8,78.6,76.9,75.7,90,78,65,30.13,30.05,14,2,14,0.00
2013-7-23,91.3,85.0,79.2,80.6,77.0,74.0,91,77,61,30.09,29.95,15,2,15,0.18
2013-7-24,95.8,85.7,78.9,80.5,76.5,72.2,93,75,51,30.01,29.89,14,2,14,0.00
2013-7-25,100.4,88.2,76.8,78.1,75.2,72.4,91,67,45,30.00,29.90,14,2,14,0.00
2013-7-26,98.8,85.4,76.8,79.7,76.7,74.5,95,77,48,30.01,29.91,23,3,23,2.04
2013-7-27,86.0,80.3,77.6,80.7,76.8,74.7,95,89,81,29.99,29.92,14,1,14,0.35
2013-7-28,89.9,83.2,75.9,80.5,76.9,73.5,98,82,64,30.05,29.93,16,1,16,0.48
2013-7-29,91.7,85.2,79.6,79.9,77.9,76.0,92,79,66,30.11,30.00,15,2,15,0.00
2013-7-30,91.2,85.5,77.3,80.3,78.2,75.1,96,79,69,30.14,30.06,17,3,17,0.27
2013-7-31,91.3,86.3,82.8,79.0,77.1,74.2,84,74,63,30.09,29.98,15,4,15,0.00
2013-8-1,91.1,85.5,81.4,77.9,75.6,73.8,81,73,62,30.03,29.92,15,4,15,0.00
2013-8-2,92.5,84.3,79.1,78.4,75.8,71.4,88,76,56,30.04,29.89,18,2,18,0.00
2013-8-3,89.3,80.8,75.2,79.4,75.8,71.7,94,85,65,30.11,30.00,17,1,17,0.26
2013-8-4,92.7,83.7,77.3,79.9,76.8,74.5,93,81,62,30.09,29.96,14,1,14,0.32
2013-8-5,92.6,83.2,77.9,81.9,77.0,72.3,94,82,63,30.02,29.92,12,1,12,0.02
2013-8-6,91.3,84.1,77.5,79.6,76.7,73.2,94,79,68,29.97,29.87,12,1,12,0.00
2013-8-7,90.8,85.0,80.3,78.9,77.0,74.5,90,77,66,29.96,29.88,15,2,15,0.00
2013-8-8,90.8,85.5,80.5,80.3,76.8,73.0,89,75,64,30.00,29.90,14,4,14,0.17
2013-8-9,88.7,83.9,81.4,78.3,75.2,71.5,84,75,68,30.04,29.93,19,4,19,0.00
2013-8-10,92.0,86.0,82.0,79.1,77.1,75.3,83,75,64,30.10,30.01,15,4,15,0.00
2013-8-11,91.5,86.5,82.6,79.2,77.6,75.6,83,75,67,30.11,30.04,13,4,13,0.00
2013-8-12,92.0,86.0,81.8,78.7,76.3,73.0,82,73,61,30.09,29.99,13,3,13,0.00
2013-8-13,91.2,86.0,82.3,78.7,76.7,73.5,84,74,63,30.02,29.94,12,2,12,0.00
2013-8-14,91.4,86.2,82.3,78.7,76.4,74.8,82,73,63,30.01,29.91,15,2,15,0.00
2013-8-15,85.6,82.1,75.7,78.6,77.0,74.0,96,85,76,30.04,29.94,13,1,13,0.68
2013-8-16,91.8,85.8,79.6,80.8,78.8,76.8,94,80,64,30.03,29.96,11,2,11,0.00
2013-8-17,91.5,86.7,83.3,81.1,78.6,76.4,87,77,66,30.06,29.98,14,3,14,0.00
2013-8-18,91.7,85.9,82.6,80.3,78.1,75.3,85,78,67,30.06,29.97,19,4,19,0.01
2013-8-19,91.7,86.5,83.0,79.8,77.9,75.2,84,76,63,30.05,29.94,14,4,14,0.00
2013-8-20,91.8,86.1,81.2,78.8,77.0,72.8,87,75,63,30.04,29.96,17,4,17,0.03
2013-8-21,90.7,84.6,80.8,81.4,78.3,75.0,91,82,69,30.05,29.98,17,5,17,0.18
2013-8-22,91.0,85.5,76.6,80.0,78.3,73.7,96,79,69,30.06,29.93,20,4,20,0.52
2013-8-23,91.3,85.2,81.0,79.3,77.5,75.0,86,78,65,29.99,29.92,14,2,14,0.09
2013-8-24,91.9,85.8,78.9,78.9,77.1,72.3,88,76,64,30.09,29.95,14,2,14,0.01
2013-8-25,87.7,82.7,78.6,78.0,76.1,73.8,92,81,69,30.13,30.00,11,2,11,0.00
2013-8-26,90.5,84.2,80.4,78.0,75.5,73.2,84,75,63,30.10,29.99,21,2,21,0.00
2013-8-27,88.3,81.8,76.0,77.7,74.5,71.5,94,79,60,30.02,29.95,10,1,10,0.03
2013-8-28,87.9,82.6,77.1,78.0,75.3,72.4,96,79,65,30.03,29.92,10,2,10,0.98
2013-8-29,90.1,84.2,76.1,79.5,76.6,73.0,91,78,67,30.00,29.91,12,2,12,0.00
2013-8-30,92.7,84.9,78.0,78.1,75.9,71.1,92,75,58,29.99,29.88,13,2,13,0.00
2013-8-31,90.3,82.3,77.6,78.7,75.8,72.3,92,81,66,29.97,29.89,12,1,12,0.02
2013-9-1,89.3,82.4,76.5,80.7,76.9,74.6,95,84,69,29.98,29.91,10,1,10,0.08
2013-9-2,91.0,81.0,76.9,79.8,76.5,74.1,96,87,65,30.01,29.92,15,1,19,0.11
2013-9-3,90.1,82.5,74.7,80.6,76.8,72.9,95,84,70,30.00,29.91,12,2,12,0.00
2013-9-4,88.9,84.7,82.7,79.7,77.9,75.1,86,80,73,30.04,29.92,13,2,13,0.00
2013-9-5,90.5,84.7,78.3,79.8,77.8,75.0,95,80,67,30.05,29.97,21,3,21,0.25
2013-9-6,92.3,86.3,82.5,79.8,77.9,76.1,86,77,63,30.02,29.90,13,3,13,0.00
2013-9-7,88.6,81.8,76.8,78.7,75.7,71.7,89,82,69,29.96,29.88,16,2,16,0.05
2013-9-8,91.2,81.9,75.1,78.3,75.2,72.4,95,81,63,29.93,29.83,11,1,11,0.00
2013-9-9,91.5,83.9,76.9,78.1,75.8,73.5,91,77,61,29.97,29.88,13,2,13,0.00
2013-9-10,90.5,83.2,77.7,78.5,76.2,73.2,95,80,63,30.02,29.92,22,4,22,0.48
2013-9-11,87.2,82.0,78.7,79.2,76.2,73.3,91,83,74,30.03,29.94,17,3,17,0.15
2013-9-12,86.6,80.6,75.5,78.9,76.3,73.0,96,87,76,30.00,29.87,11,1,11,0.57
2013-9-13,91.3,83.4,75.2,80.2,75.8,72.5,98,79,61,29.88,29.78,12,1,12,0.00
2013-9-14,92.5,85.2,78.2,78.7,76.5,74.5,92,76,62,29.95,29.80,11,2,11,0.00
2013-9-15,85.4,81.7,78.9,79.3,77.0,73.5,94,86,76,30.02,29.90,18,3,18,0.18
2013-9-16,86.3,82.4,80.4,79.6,76.4,73.3,90,82,72,30.02,29.93,16,4,16,0.00
2013-9-17,87.0,81.5,78.2,78.2,76.0,71.5,88,84,73,30.00,29.89,16,4,16,0.01
2013-9-18,87.0,81.1,75.1,78.8,76.0,73.3,98,85,75,29.99,29.89,12,2,12,3.34
2013-9-19,90.3,81.6,75.3,78.8,75.4,71.5,96,82,66,29.98,29.90,16,3,16,0.03
2013-9-20,89.0,82.9,77.4,75.7,72.3,69.1,90,71,56,29.98,29.87,15,3,15,0.08
2013-9-21,89.3,83.0,79.5,76.1,74.3,72.0,81,75,63,29.89,29.75,10,2,10,0.00
2013-9-22,91.5,85.1,78.5,79.4,77.0,74.5,92,77,62,29.85,29.74,15,2,15,0.00
2013-9-23,90.5,82.1,77.1,80.1,77.4,75.0,96,86,67,29.96,29.84,26,1,26,0.76
2013-9-24,91.7,83.6,77.7,81.7,77.2,71.7,96,82,64,29.95,29.85,17,2,17,0.02
2013-9-25,92.2,81.7,76.7,80.3,75.8,71.3,94,83,64,29.90,29.78,29,2,29,0.43
2013-9-26,93.7,82.5,76.9,82.5,77.4,75.0,95,85,63,29.85,29.77,23,3,23,0.13
2013-9-27,91.8,82.4,75.5,77.1,74.7,70.5,96,79,52,29.90,29.80,15,2,15,0.00
2013-9-28,89.0,81.3,74.2,76.7,74.0,71.6,95,79,62,29.94,29.85,15,3,17,1.31
2013-9-29,89.2,82.4,74.7,75.8,72.2,70.4,95,72,56,29.95,29.85,13,2,13,0.00
2013-9-30,89.4,83.8,79.2,74.1,72.5,70.1,79,69,58,29.98,29.88,11,2,11,0.00
2013-10-1,89.9,84.4,80.9,76.8,73.9,71.1,80,71,62,30.00,29.93,16,4,16,0.00
2013-10-2,85.5,82.2,79.7,76.5,74.9,73.3,89,79,71,30.02,29.94,15,5,15,0.01
2013-10-3,89.0,83.3,78.6,77.3,75.0,72.7,88,76,67,30.03,29.92,14,3,14,0.00
2013-10-4,89.3,83.8,80.4,74.8,73.0,70.5,82,70,60,30.03,29.96,12,3,12,0.00
2013-10-5,89.5,83.1,74.3,75.7,73.2,70.3,89,73,58,30.01,29.91,11,2,11,0.00
2013-10-6,90.5,83.8,77.5,79.2,73.8,71.0,94,73,58,29.94,29.85,11,2,11,0.08
2013-10-7,93.2,81.5,76.0,78.3,74.2,71.6,95,80,52,29.88,29.79,20,2,20,0.44
2013-10-8,91.1,81.2,76.4,80.1,76.5,72.3,97,86,63,29.91,29.83,12,1,12,0.31
2013-10-9,87.5,79.5,72.7,77.3,73.9,70.3,95,83,71,29.97,29.88,14,2,14,0.00
2013-10-10,89.0,80.8,73.1,75.9,73.2,69.9,96,79,63,29.99,29.92,16,3,16,0.06
2013-10-11,87.7,81.4,73.7,73.0,69.9,66.4,88,69,57,29.99,29.92,14,3,14,0.00
2013-10-12,87.7,80.8,72.2,72.0,69.4,66.8,90,69,55,30.01,29.92,11,2,11,0.00
2013-10-13,87.3,81.3,75.1,72.6,68.5,64.7,87,66,51,30.03,29.94,16,2,16,0.00
2013-10-14,87.7,80.9,73.6,71.9,69.7,67.2,85,69,56,30.00,29.88,12,2,12,0.00
2013-10-15,87.2,80.9,73.0,74.1,71.3,68.9,91,73,61,29.93,29.85,14,2,14,0.00
2013-10-16,86.6,80.2,75.3,74.5,70.9,68.8,89,74,60,29.93,29.86,11,2,11,0.00
2013-10-17,88.4,81.8,75.2,74.2,72.6,70.4,87,74,61,29.95,29.87,11,2,11,0.00
2013-10-18,88.3,82.8,75.9,75.2,73.1,70.4,89,73,64,29.97,29.88,11,2,11,0.00
2013-10-19,89.2,83.8,79.3,77.1,74.3,71.2,81,73,64,29.94,29.86,12,2,12,0.00
2013-10-20,87.2,82.4,77.8,78.3,76.2,74.3,93,82,72,29.94,29.85,13,1,13,0.05
2013-10-21,89.5,84.3,79.8,78.9,76.9,75.2,90,79,68,29.99,29.89,14,1,14,0.00
2013-10-22,92.3,84.3,78.8,79.5,76.8,74.3,90,79,59,29.94,29.82,14,2,14,0.00
2013-10-23,91.9,82.9,78.0,77.7,74.8,69.9,93,77,58,29.93,29.80,17,2,17,0.05
2013-10-24,80.7,78.0,74.5,70.6,67.2,63.8,79,70,60,30.07,29.91,12,3,15,0.00
2013-10-25,84.1,78.7,72.6,68.7,65.5,62.8,78,64,52,30.12,30.03,18,4,18,0.00
2013-10-26,85.0,79.4,75.0,66.5,64.6,62.9,68,61,52,30.12,30.03,16,3,16,0.00
2013-10-27,85.0,76.7,68.3,67.6,64.3,61.6,80,66,51,30.07,30.00,13,2,13,0.00
2013-10-28,85.7,79.9,75.8,69.7,66.0,62.8,70,63,49,30.12,30.02,13,3,13,0.00
2013-10-29,86.0,80.5,76.7,72.1,68.6,65.3,74,67,59,30.15,30.06,17,4,17,0.00
2013-10-30,84.5,80.2,77.4,70.6,68.4,66.1,75,67,57,30.16,30.06,17,6,18,0.00
2013-10-31,86.4,81.4,78.1,74.1,71.3,66.0,81,72,61,30.09,29.97,16,4,16,0.00
2013-11-1,88.4,82.3,79.2,76.1,73.8,71.8,81,76,67,29.99,29.87,14,2,14,0.00
2013-11-2,94.3,82.2,73.8,74.4,71.4,64.1,94,72,39,29.92,29.78,15,2,15,0.00
2013-11-3,83.8,76.2,70.0,67.5,64.8,62.3,82,68,54,30.00,29.87,22,5,22,0.19
2013-11-4,82.5,78.3,76.1,69.8,65.6,57.9,76,66,47,30.05,29.98,24,8,24,0.00
2013-11-5,82.3,78.4,75.1,72.6,69.9,65.9,90,75,65,30.07,29.99,24,9,24,0.09
2013-11-6,85.9,80.2,77.2,72.4,71.0,69.3,80,74,62,30.04,29.97,21,5,21,0.00
2013-11-7,86.5,78.3,71.2,73.4,70.9,68.2,92,79,62,29.99,29.90,13,2,13,0.00
2013-11-8,85.5,76.9,71.9,74.6,71.8,68.7,96,85,63,30.01,29.91,20,4,20,0.67
2013-11-9,80.8,77.4,74.6,74.6,72.9,71.7,95,86,78,30.09,29.98,22,8,22,0.20
2013-11-10,84.4,79.8,77.7,73.8,71.4,68.5,85,76,67,30.09,30.02,19,5,19,0.00
2013-11-11,84.8,79.8,77.4,72.8,70.2,67.7,80,73,64,30.09,30.02,16,4,16,0.00
2013-11-12,85.0,79.2,73.2,72.0,69.8,67.9,88,73,61,30.05,29.94,12,2,12,0.00
2013-11-13,79.0,73.2,70.6,69.3,65.2,59.3,93,76,62,30.18,29.97,22,6,24,0.80
2013-11-14,78.0,73.5,70.8,64.7,60.4,56.6,72,64,57,30.22,30.10,26,8,26,0.00
2013-11-15,82.1,77.6,74.1,71.3,67.6,61.9,90,71,64,30.12,30.00,19,6,19,0.04
2013-11-16,81.6,78.7,72.6,73.4,69.9,59.7,88,75,55,30.08,29.99,16,4,16,0.05
2013-11-17,84.9,80.3,77.8,73.8,71.7,69.6,82,75,65,30.06,29.98,14,3,14,0.00
2013-11-18,85.7,79.7,75.3,74.4,72.0,70.7,89,78,65,30.01,29.90,10,1,10,0.00
2013-11-19,86.1,77.1,73.9,75.4,72.3,70.6,93,86,65,29.92,29.83,13,1,13,0.05
2013-11-20,85.0,77.7,71.4,76.3,72.7,69.9,96,85,71,30.03,29.89,11,1,11,0.00
2013-11-21,83.4,76.6,72.7,76.6,73.3,71.4,97,90,78,30.11,30.02,20,4,20,1.24
2013-11-22,82.1,78.0,73.8,73.2,71.9,70.5,95,82,73,30.12,30.04,19,6,19,0.29
2013-11-23,83.3,78.8,76.0,73.4,71.8,70.4,86,79,71,30.06,29.95,16,4,16,0.00
2013-11-24,82.6,75.5,69.7,71.7,68.9,65.0,94,81,63,30.12,29.96,25,4,25,0.58
2013-11-25,77.3,74.1,72.4,70.7,66.5,61.8,92,77,69,30.17,30.03,26,10,26,0.10
2013-11-26,84.3,78.4,72.9,76.7,73.7,69.7,93,85,76,30.03,29.81,24,5,24,0.09
2013-11-27,81.6,72.9,61.1,76.2,66.2,54.4,98,81,53,30.09,29.77,21,4,21,1.11
2013-11-28,74.3,64.8,51.0,63.5,55.3,47.6,89,72,57,30.22,30.09,20,5,20,0.00
2013-11-29,77.7,72.6,65.5,65.4,61.1,56.1,82,68,57,30.25,30.16,21,4,21,0.00
2013-11-30,79.7,73.0,65.9,70.7,65.0,61.4,92,76,66,30.18,30.08,20,4,20,0.08
2013-12-1,77.3,71.2,67.4,71.2,67.1,62.8,96,87,72,30.08,29.92,11,1,11,1.50
2013-12-2,77.1,69.7,64.6,68.0,65.2,61.6,96,86,63,29.92,29.80,14,2,14,0.00
2013-12-3,78.7,71.7,64.0,67.1,64.4,60.0,92,79,54,29.98,29.88,7,1,7,0.00
2013-12-4,84.2,75.3,67.2,71.0,67.3,65.2,96,77,61,30.07,29.97,11,1,11,0.00
2013-12-5,83.8,78.4,75.3,72.8,70.4,67.4,81,76,69,30.14,30.05,15,3,15,0.00
2013-12-6,83.8,78.9,76.3,72.1,70.4,68.2,84,75,65,30.17,30.07,12,3,15,0.00
2013-12-7,84.1,78.7,72.2,72.6,70.3,68.0,90,76,64,30.20,30.11,16,2,16,0.06
2013-12-8,83.2,78.1,71.5,72.3,70.4,66.8,95,78,65,30.19,30.10,19,4,19,0.11
2013-12-9,83.3,79.4,76.9,71.9,69.8,67.1,81,73,60,30.18,30.09,18,3,18,0.00
2013-12-10,85.5,79.6,76.3,74.6,72.4,70.4,88,79,68,30.14,30.06,12,2,12,0.00
2013-12-11,84.4,79.1,75.3,74.5,72.7,71.1,91,81,70,30.18,30.09,12,2,12,0.00
2013-12-12,81.7,74.8,70.6,73.6,68.0,61.2,94,80,67,30.20,30.11,19,4,19,0.00
2013-12-13,78.3,74.5,71.5,69.7,65.2,60.1,84,73,67,30.17,30.07,22,7,22,0.00
2013-12-14,82.8,78.8,75.8,73.3,71.7,68.8,84,79,72,30.09,29.97,18,4,18,0.00
2013-12-15,86.9,79.2,72.8,75.9,72.8,69.5,92,81,65,30.03,29.90,18,3,18,0.00
2013-12-16,75.1,70.0,64.1,69.4,62.7,59.8,89,78,66,30.13,30.01,13,3,13,0.00
2013-12-17,79.2,69.7,61.7,66.3,61.2,58.8,92,76,58,30.16,30.07,15,3,15,0.00
2013-12-18,78.6,68.9,62.3,61.8,59.4,57.3,90,73,54,30.21,30.11,17,3,17,0.00
2013-12-19,79.3,72.8,63.1,65.0,61.2,58.0,86,68,55,30.22,30.13,16,4,16,0.00
2013-12-20,82.5,77.8,74.7,71.0,68.6,64.3,81,73,64,30.17,30.08,19,5,19,0.00
2013-12-21,83.8,79.0,76.9,73.9,72.3,70.4,86,80,69,30.13,30.04,19,5,19,0.00
2013-12-22,84.8,79.7,77.4,75.0,73.2,71.7,86,81,70,30.14,30.06,16,4,16,0.00
2013-12-23,85.2,79.4,73.4,75.1,73.0,70.3,90,81,71,30.16,30.10,16,3,16,0.00
2013-12-24,89.7,75.0,69.5,74.5,68.8,63.6,96,82,54,30.16,30.06,19,3,19,0.00
2013-12-25,76.9,74.1,72.2,67.9,66.5,65.3,83,78,73,30.15,30.07,21,6,21,0.00
2013-12-26,79.3,77.1,76.1,71.4,70.7,70.0,84,81,74,30.11,30.04,10,3,13,0.00
2013-12-27,82.1,77.2,74.2,72.9,70.7,68.7,90,81,71,30.17,30.06,15,4,15,0.07
2013-12-28,82.0,77.7,75.8,73.7,71.5,68.8,89,82,74,30.15,30.00,17,6,20,0.01
2013-12-29,82.3,78.5,75.2,75.2,73.8,72.0,94,86,78,30.02,29.91,15,3,17,0.00
2013-12-30,82.1,74.7,71.0,73.5,71.1,66.6,96,89,72,30.12,29.96,11,2,12,0.00
2013-12-31,78.8,73.5,69.2,69.4,66.0,63.3,92,78,66,30.20,30.08,20,4,20,0.00
2014-1-1,80.5,77.2,74.1,74.0,71.4,64.9,90,83,71,30.17,30.02,16,4,17,0.01
2014-1-2,87.5,79.1,73.7,73.8,70.5,66.8,91,76,57,30.02,29.85,15,3,17,0.00